Time,TemperatureF,DewpointF,PressureIn,WindDirection,WindDirectionDegrees,WindSpeedMPH,WindSpeedGustMPH,Humidity,HourlyPrecipIn,Conditions,Clouds,dailyrainin,SoftwareType,DateUTC
2014-03-04 00:09:00,8.4,-4.0,30.37,ENE,62,3.0,8.0,57,0.00,,,0.00,weatherlink.com 1.10,2014-03-04 05:09:00,
2014-03-04 00:24:00,8.6,-3.0,30.37,ENE,63,6.0,11.0,59,0.00,,,0.00,weatherlink.com 1.10,2014-03-04 05:24:00,
2014-03-04 00:39:00,8.8,-3.0,30.37,NE,53,6.0,15.0,59,0.00,,,0.00,weatherlink.com 1.10,2014-03-04 05:39:00,
2014-03-04 00:54:00,8.4,-3.0,30.37,NNE,33,8.0,9.0,61,0.00,,,0.00,weatherlink.com 1.10,2014-03-04 05:54:00,
2014-03-04 01:10:00,8.2,-3.0,30.38,NNE,18,3.0,9.0,62,0.00,,,0.00,weatherlink.com 1.10,2014-03-04 06:10:00,
2014-03-04 01:25:00,8.1,-2.0,30.38,NNE,13,3.0,10.0,63,0.00,,,0.00,weatherlink.com 1.10,2014-03-04 06:25:00,
2014-03-04 01:40:00,8.0,-2.0,30.38,East,80,4.0,14.0,64,0.00,,,0.00,weatherlink.com 1.10,2014-03-04 06:40:00,
2014-03-04 01:55:00,7.8,-2.0,30.38,NE,44,6.0,11.0,65,0.00,,,0.00,weatherlink.com 1.10,2014-03-04 06:55:00,
2014-03-04 02:10:00,8.0,-2.0,30.38,NE,38,2.0,9.0,65,0.00,,,0.00,weatherlink.com 1.10,2014-03-04 07:10:00,
2014-03-04 02:25:00,7.6,-2.0,30.37,NE,43,1.0,6.0,66,0.00,,,0.00,weatherlink.com 1.10,2014-03-04 07:25:00,
2014-03-04 02:40:00,7.2,-2.0,30.38,NE,34,4.0,9.0,67,0.00,,,0.00,weatherlink.com 1.10,2014-03-04 07:40:00,
2014-03-04 02:55:00,7.2,-2.0,30.36,ENE,62,3.0,11.0,67,0.00,,,0.00,weatherlink.com 1.10,2014-03-04 07:55:00,
2014-03-04 03:10:00,7.0,-2.0,30.37,ENE,59,1.0,4.0,68,0.00,,,0.00,weatherlink.com 1.10,2014-03-04 08:10:00,
2014-03-04 03:25:00,6.4,-2.0,30.37,ENE,69,1.0,4.0,69,0.00,,,0.00,weatherlink.com 1.10,2014-03-04 08:25:00,
2014-03-04 03:40:00,5.5,-3.0,30.36,ENE,69,0.0,1.0,69,0.00,,,0.00,weatherlink.com 1.10,2014-03-04 08:40:00,
2014-03-04 03:55:00,4.2,-3.0,30.36,ENE,69,0.0,1.0,71,0.00,,,0.00,weatherlink.com 1.10,2014-03-04 08:55:00,
2014-03-04 04:10:00,3.2,-4.0,30.36,ENE,69,1.0,2.0,72,0.00,,,0.00,weatherlink.com 1.10,2014-03-04 09:10:00,
2014-03-04 04:25:00,1.4,-5.0,30.37,ENE,69,0.0,2.0,74,0.00,,,0.00,weatherlink.com 1.10,2014-03-04 09:25:00,
2014-03-04 04:41:00,0.1,-6.0,30.38,ENE,69,1.0,2.0,77,0.00,,,0.00,weatherlink.com 1.10,2014-03-04 09:41:00,
2014-03-04 04:56:00,-0.6,-5.0,30.38,ENE,69,1.0,2.0,80,0.00,,,0.00,weatherlink.com 1.10,2014-03-04 09:56:00,
2014-03-04 05:11:00,-0.9,-6.0,30.38,ENE,69,0.0,1.0,80,0.00,,,0.00,weatherlink.com 1.10,2014-03-04 10:11:00,
2014-03-04 05:26:00,-1.3,-6.0,30.38,ENE,69,0.0,1.0,82,0.00,,,0.00,weatherlink.com 1.10,2014-03-04 10:26:00,
2014-03-04 05:41:00,-1.1,-5.0,30.38,ENE,69,1.0,2.0,82,0.00,,,0.00,weatherlink.com 1.10,2014-03-04 10:41:00,
2014-03-04 05:56:00,-2.1,-6.0,30.39,ENE,69,1.0,1.0,82,0.00,,,0.00,weatherlink.com 1.10,2014-03-04 10:56:00,
2014-03-04 06:11:00,-1.6,-6.0,30.40,ENE,69,1.0,2.0,83,0.00,,,0.00,weatherlink.com 1.10,2014-03-04 11:11:00,
2014-03-04 06:26:00,-2.2,-7.0,30.40,ENE,69,0.0,1.0,80,0.00,,,0.00,weatherlink.com 1.10,2014-03-04 11:26:00,
2014-03-04 06:41:00,-3.2,-7.0,30.40,ENE,69,0.0,1.0,82,0.00,,,0.00,weatherlink.com 1.10,2014-03-04 11:41:00,
2014-03-04 06:56:00,-2.2,-6.0,30.40,ENE,69,1.0,2.0,85,0.00,,,0.00,weatherlink.com 1.10,2014-03-04 11:56:00,
2014-03-04 07:11:00,-1.1,-5.0,30.40,ENE,69,1.0,2.0,84,0.00,,,0.00,weatherlink.com 1.10,2014-03-04 12:11:00,
2014-03-04 07:26:00,2.6,-1.0,30.39,ENE,63,1.0,2.0,83,0.00,,,0.00,weatherlink.com 1.10,2014-03-04 12:26:00,
2014-03-04 07:41:00,4.5,0.0,30.39,ENE,63,0.0,1.0,80,0.00,,,0.00,weatherlink.com 1.10,2014-03-04 12:41:00,
2014-03-04 07:57:00,6.7,1.0,30.40,ENE,63,0.0,1.0,76,0.00,,,0.00,weatherlink.com 1.10,2014-03-04 12:57:00,
2014-03-04 08:12:00,8.7,1.0,30.41,NE,51,2.0,3.0,71,0.00,,,0.00,weatherlink.com 1.10,2014-03-04 13:12:00,
2014-03-04 08:27:00,10.4,2.0,30.42,ENE,71,1.0,3.0,68,0.00,,,0.00,weatherlink.com 1.10,2014-03-04 13:27:00,
2014-03-04 08:42:00,11.4,2.0,30.42,ESE,110,1.0,3.0,66,0.00,,,0.00,weatherlink.com 1.10,2014-03-04 13:42:00,
2014-03-04 08:57:00,11.7,2.0,30.42,ESE,110,3.0,4.0,65,0.00,,,0.00,weatherlink.com 1.10,2014-03-04 13:57:00,
2014-03-04 09:12:00,12.4,2.0,30.41,East,91,1.0,3.0,64,0.00,,,0.00,weatherlink.com 1.10,2014-03-04 14:12:00,
2014-03-04 09:27:00,13.5,3.0,30.41,West,277,1.0,3.0,62,0.00,,,0.00,weatherlink.com 1.10,2014-03-04 14:27:00,
2014-03-04 09:42:00,13.8,3.0,30.41,NW,309,1.0,3.0,62,0.00,,,0.00,weatherlink.com 1.10,2014-03-04 14:42:00,
2014-03-04 09:57:00,14.4,3.0,30.41,North,5,0.0,3.0,60,0.00,,,0.00,weatherlink.com 1.10,2014-03-04 14:57:00,
2014-03-04 10:12:00,15.0,3.0,30.40,West,273,3.0,5.0,60,0.00,,,0.00,weatherlink.com 1.10,2014-03-04 15:12:00,
2014-03-04 10:27:00,14.8,3.0,30.40,WNW,297,5.0,8.0,59,0.00,,,0.00,weatherlink.com 1.10,2014-03-04 15:27:00,
2014-03-04 10:42:00,15.8,3.0,30.39,WNW,284,1.0,7.0,58,0.00,,,0.00,weatherlink.com 1.10,2014-03-04 15:42:00,
2014-03-04 10:57:00,17.4,4.0,30.39,SE,135,1.0,7.0,56,0.00,,,0.00,weatherlink.com 1.10,2014-03-04 15:57:00,
2014-03-04 11:12:00,18.2,4.0,30.37,South,171,5.0,6.0,54,0.00,,,0.00,weatherlink.com 1.10,2014-03-04 16:12:00,
2014-03-04 11:28:00,18.5,5.0,30.38,ESE,122,2.0,4.0,55,0.00,,,0.00,weatherlink.com 1.10,2014-03-04 16:28:00,
2014-03-04 11:43:00,19.4,3.0,30.37,South,171,2.0,6.0,50,0.00,,,0.00,weatherlink.com 1.10,2014-03-04 16:43:00,
2014-03-04 11:58:00,19.3,4.0,30.36,SW,230,3.0,4.0,51,0.00,,,0.00,weatherlink.com 1.10,2014-03-04 16:58:00,
2014-03-04 12:13:00,20.2,3.0,30.36,WNW,293,2.0,4.0,48,0.00,,,0.00,weatherlink.com 1.10,2014-03-04 17:13:00,
2014-03-04 12:28:00,21.7,4.0,30.35,South,177,2.0,6.0,46,0.00,,,0.00,weatherlink.com 1.10,2014-03-04 17:28:00,
2014-03-04 12:43:00,22.7,5.0,30.34,ENE,60,1.0,5.0,46,0.00,,,0.00,weatherlink.com 1.10,2014-03-04 17:43:00,
2014-03-04 12:58:00,22.5,4.0,30.33,ENE,57,1.0,6.0,45,0.00,,,0.00,weatherlink.com 1.10,2014-03-04 17:58:00,
2014-03-04 13:13:00,22.6,4.0,30.32,NNE,21,3.0,6.0,44,0.00,,,0.00,weatherlink.com 1.10,2014-03-04 18:13:00,
2014-03-04 13:28:00,21.6,3.0,30.32,North,360,2.0,4.0,44,0.00,,,0.00,weatherlink.com 1.10,2014-03-04 18:28:00,
2014-03-04 13:43:00,21.6,3.0,30.31,NNE,16,1.0,4.0,44,0.00,,,0.00,weatherlink.com 1.10,2014-03-04 18:43:00,
2014-03-04 13:58:00,22.4,4.0,30.31,SE,129,1.0,4.0,45,0.00,,,0.00,weatherlink.com 1.10,2014-03-04 18:58:00,
2014-03-04 14:13:00,22.5,3.0,30.30,SE,144,0.0,4.0,43,0.00,,,0.00,weatherlink.com 1.10,2014-03-04 19:13:00,
2014-03-04 14:28:00,23.0,4.0,30.30,NNW,344,1.0,3.0,44,0.00,,,0.00,weatherlink.com 1.10,2014-03-04 19:28:00,
2014-03-04 14:44:00,23.0,3.0,30.29,East,90,2.0,3.0,42,0.00,,,0.00,weatherlink.com 1.10,2014-03-04 19:44:00,
2014-03-04 14:59:00,23.0,3.0,30.29,NE,55,1.0,3.0,42,0.00,,,0.00,weatherlink.com 1.10,2014-03-04 19:59:00,
2014-03-04 15:14:00,23.2,3.0,30.29,ENE,74,2.0,4.0,42,0.00,,,0.00,weatherlink.com 1.10,2014-03-04 20:14:00,
2014-03-04 15:29:00,23.6,2.0,30.29,NE,46,1.0,3.0,40,0.00,,,0.00,weatherlink.com 1.10,2014-03-04 20:29:00,
2014-03-04 15:44:00,23.5,3.0,30.29,North,355,1.0,4.0,42,0.00,,,0.00,weatherlink.com 1.10,2014-03-04 20:44:00,
2014-03-04 15:59:00,23.6,3.0,30.27,East,80,1.0,4.0,41,0.00,,,0.00,weatherlink.com 1.10,2014-03-04 20:59:00,
2014-03-04 16:14:00,23.5,3.0,30.27,East,90,1.0,4.0,41,0.00,,,0.00,weatherlink.com 1.10,2014-03-04 21:14:00,
2014-03-04 16:29:00,23.7,4.0,30.26,ENE,67,0.0,2.0,43,0.00,,,0.00,weatherlink.com 1.10,2014-03-04 21:29:00,
2014-03-04 16:44:00,23.8,5.0,30.27,ENE,63,1.0,2.0,44,0.00,,,0.00,weatherlink.com 1.10,2014-03-04 21:44:00,
2014-03-04 16:59:00,23.4,4.0,30.26,ENE,61,1.0,3.0,43,0.00,,,0.00,weatherlink.com 1.10,2014-03-04 21:59:00,
2014-03-04 17:14:00,23.3,4.0,30.25,ENE,67,2.0,4.0,44,0.00,,,0.00,weatherlink.com 1.10,2014-03-04 22:14:00,
2014-03-04 17:29:00,23.2,4.0,30.25,NNE,32,3.0,3.0,44,0.00,,,0.00,weatherlink.com 1.10,2014-03-04 22:29:00,
2014-03-04 17:44:00,22.8,5.0,30.26,NE,46,1.0,3.0,46,0.00,,,0.00,weatherlink.com 1.10,2014-03-04 22:44:00,
2014-03-04 18:00:00,22.3,5.0,30.27,NNE,26,0.0,1.0,47,0.00,,,0.00,weatherlink.com 1.10,2014-03-04 23:00:00,
2014-03-04 18:15:00,21.7,6.0,30.27,NE,36,1.0,3.0,50,0.00,,,0.00,weatherlink.com 1.10,2014-03-04 23:15:00,
2014-03-04 18:30:00,21.7,6.0,30.28,NNE,24,0.0,2.0,50,0.00,,,0.00,weatherlink.com 1.10,2014-03-04 23:30:00,
2014-03-04 18:45:00,21.5,6.0,30.28,NNE,24,0.0,2.0,51,0.00,,,0.00,weatherlink.com 1.10,2014-03-04 23:45:00,
2014-03-04 19:00:00,21.3,6.0,30.28,NNE,24,1.0,2.0,51,0.00,,,0.00,weatherlink.com 1.10,2014-03-05 00:00:00,
2014-03-04 19:15:00,20.9,6.0,30.29,NNE,25,0.0,1.0,53,0.00,,,0.00,weatherlink.com 1.10,2014-03-05 00:15:00,
2014-03-04 19:30:00,20.5,7.0,30.28,NNE,25,0.0,1.0,56,0.00,,,0.00,weatherlink.com 1.10,2014-03-05 00:30:00,
2014-03-04 19:45:00,19.9,7.0,30.28,NNE,25,0.0,1.0,57,0.00,,,0.00,weatherlink.com 1.10,2014-03-05 00:45:00,
2014-03-04 20:00:00,19.2,7.0,30.28,NNE,24,0.0,1.0,58,0.00,,,0.00,weatherlink.com 1.10,2014-03-05 01:00:00,
2014-03-04 20:15:00,18.7,6.0,30.28,NNE,24,1.0,1.0,59,0.00,,,0.00,weatherlink.com 1.10,2014-03-05 01:15:00,
2014-03-04 20:30:00,18.2,6.0,30.28,NNE,25,1.0,1.0,60,0.00,,,0.00,weatherlink.com 1.10,2014-03-05 01:30:00,
2014-03-04 20:45:00,17.6,7.0,30.28,NNE,24,1.0,1.0,62,0.00,,,0.00,weatherlink.com 1.10,2014-03-05 01:45:00,
2014-03-04 21:00:00,17.1,6.0,30.29,NNE,24,0.0,2.0,63,0.00,,,0.00,weatherlink.com 1.10,2014-03-05 02:00:00,
2014-03-04 21:15:00,16.7,6.0,30.29,NNE,24,0.0,1.0,64,0.00,,,0.00,weatherlink.com 1.10,2014-03-05 02:15:00,
2014-03-04 21:31:00,16.3,7.0,30.29,NNE,24,0.0,0.0,66,0.00,,,0.00,weatherlink.com 1.10,2014-03-05 02:31:00,
2014-03-04 21:46:00,15.7,6.0,30.29,NNE,24,0.0,0.0,65,0.00,,,0.00,weatherlink.com 1.10,2014-03-05 02:46:00,
2014-03-04 22:01:00,15.0,6.0,30.29,NNE,24,0.0,0.0,68,0.00,,,0.00,weatherlink.com 1.10,2014-03-05 03:01:00,
2014-03-04 22:16:00,14.8,6.0,30.28,NNE,24,0.0,0.0,69,0.00,,,0.00,weatherlink.com 1.10,2014-03-05 03:16:00,
2014-03-04 22:31:00,16.2,7.0,30.28,NNE,24,0.0,2.0,66,0.00,,,0.00,weatherlink.com 1.10,2014-03-05 03:31:00,
2014-03-04 22:46:00,17.3,7.0,30.28,NNE,24,0.0,2.0,63,0.00,,,0.00,weatherlink.com 1.10,2014-03-05 03:46:00,
2014-03-04 23:01:00,17.9,7.0,30.28,NNE,24,1.0,1.0,62,0.00,,,0.00,weatherlink.com 1.10,2014-03-05 04:01:00,
2014-03-04 23:16:00,17.3,7.0,30.27,NNE,24,0.0,0.0,65,0.00,,,0.00,weatherlink.com 1.10,2014-03-05 04:16:00,
2014-03-04 23:31:00,16.8,7.0,30.27,NNE,24,1.0,1.0,65,0.00,,,0.00,weatherlink.com 1.10,2014-03-05 04:31:00,
2014-03-04 23:46:00,16.8,8.0,30.26,NNE,24,0.0,1.0,68,0.00,,,0.00,weatherlink.com 1.10,2014-03-05 04:46:00,